sensor_id;sensor_type;location;lat;lon;timestamp;temperature;humidity
54192;DHT22;40101;53.002;6.488;2023-01-15T00:02:23;6.50;99.90
54192;DHT22;40101;53.002;6.488;2023-01-15T00:05:08;6.50;99.90
54192;DHT22;40101;53.002;6.488;2023-01-15T00:11:52;6.60;99.90
54192;DHT22;40101;53.002;6.488;2023-01-15T00:14:20;6.40;99.90
54192;DHT22;40101;53.002;6.488;2023-01-15T00:16:49;6.60;99.90
54192;DHT22;40101;53.002;6.488;2023-01-15T00:19:15;6.40;99.90
54192;DHT22;40101;53.002;6.488;2023-01-15T00:21:41;6.40;99.90
54192;DHT22;40101;53.002;6.488;2023-01-15T00:24:10;6.40;99.90
54192;DHT22;40101;53.002;6.488;2023-01-15T00:26:54;6.50;99.90
54192;DHT22;40101;53.002;6.488;2023-01-15T00:29:38;6.50;99.90
54192;DHT22;40101;53.002;6.488;2023-01-15T00:32:35;6.40;99.90
54192;DHT22;40101;53.002;6.488;2023-01-15T00:36:07;6.50;99.90
54192;DHT22;40101;53.002;6.488;2023-01-15T00:41:36;6.50;99.90
54192;DHT22;40101;53.002;6.488;2023-01-15T00:48:16;6.50;99.90
54192;DHT22;40101;53.002;6.488;2023-01-15T00:51:09;6.50;99.90
54192;DHT22;40101;53.002;6.488;2023-01-15T00:53:35;6.30;99.90
54192;DHT22;40101;53.002;6.488;2023-01-15T00:56:12;6.50;99.90
54192;DHT22;40101;53.002;6.488;2023-01-15T00:58:38;6.60;99.90
54192;DHT22;40101;53.002;6.488;2023-01-15T01:01:24;6.70;99.90
54192;DHT22;40101;53.002;6.488;2023-01-15T01:04:01;6.50;99.90
54192;DHT22;40101;53.002;6.488;2023-01-15T01:06:29;6.70;99.90
54192;DHT22;40101;53.002;6.488;2023-01-15T01:09:04;6.50;99.90
54192;DHT22;40101;53.002;6.488;2023-01-15T01:11:48;6.70;99.90
54192;DHT22;40101;53.002;6.488;2023-01-15T01:14:19;7.10;99.90
54192;DHT22;40101;53.002;6.488;2023-01-15T01:16:47;6.70;99.90
54192;DHT22;40101;53.002;6.488;2023-01-15T01:19:17;6.50;99.90
54192;DHT22;40101;53.002;6.488;2023-01-15T01:21:45;6.50;99.90
54192;DHT22;40101;53.002;6.488;2023-01-15T01:27:33;6.50;99.90
54192;DHT22;40101;53.002;6.488;2023-01-15T01:30:00;6.50;99.90
54192;DHT22;40101;53.002;6.488;2023-01-15T01:32:28;6.50;99.90
54192;DHT22;40101;53.002;6.488;2023-01-15T01:35:08;6.50;99.90
54192;DHT22;40101;53.002;6.488;2023-01-15T01:37:34;6.50;99.90
54192;DHT22;40101;53.002;6.488;2023-01-15T01:40:31;6.30;99.90
54192;DHT22;40101;53.002;6.488;2023-01-15T01:43:21;6.50;99.90
54192;DHT22;40101;53.002;6.488;2023-01-15T01:45:47;6.20;99.90
54192;DHT22;40101;53.002;6.488;2023-01-15T01:48:16;6.60;99.90
54192;DHT22;40101;53.002;6.488;2023-01-15T01:50:43;6.30;99.90
54192;DHT22;40101;53.002;6.488;2023-01-15T01:53:13;6.40;99.90
54192;DHT22;40101;53.002;6.488;2023-01-15T01:55:42;6.50;99.90
54192;DHT22;40101;53.002;6.488;2023-01-15T02:00:54;6.50;99.90
54192;DHT22;40101;53.002;6.488;2023-01-15T02:03:22;6.70;99.90
54192;DHT22;40101;53.002;6.488;2023-01-15T02:05:53;7.10;99.90
54192;DHT22;40101;53.002;6.488;2023-01-15T02:08:19;6.70;99.90
54192;DHT22;40101;53.002;6.488;2023-01-15T02:10:53;6.40;99.90
54192;DHT22;40101;53.002;6.488;2023-01-15T02:13:28;6.40;99.90
54192;DHT22;40101;53.002;6.488;2023-01-15T02:15:59;6.40;99.90
54192;DHT22;40101;53.002;6.488;2023-01-15T02:18:30;6.40;99.90
54192;DHT22;40101;53.002;6.488;2023-01-15T02:21:46;6.40;99.90
54192;DHT22;40101;53.002;6.488;2023-01-15T02:24:21;6.40;99.90
54192;DHT22;40101;53.002;6.488;2023-01-15T02:27:01;6.40;99.90
54192;DHT22;40101;53.002;6.488;2023-01-15T02:30:14;6.90;99.90
54192;DHT22;40101;53.002;6.488;2023-01-15T02:32:52;6.40;99.90
54192;DHT22;40101;53.002;6.488;2023-01-15T02:35:25;6.40;99.90
54192;DHT22;40101;53.002;6.488;2023-01-15T02:37:55;6.60;99.90
54192;DHT22;40101;53.002;6.488;2023-01-15T02:40:23;6.40;99.90
54192;DHT22;40101;53.002;6.488;2023-01-15T02:42:50;6.30;99.90
54192;DHT22;40101;53.002;6.488;2023-01-15T02:45:22;6.40;99.90
54192;DHT22;40101;53.002;6.488;2023-01-15T02:47:57;6.40;99.90
54192;DHT22;40101;53.002;6.488;2023-01-15T02:50:29;6.40;99.90
54192;DHT22;40101;53.002;6.488;2023-01-15T02:53:01;6.70;99.90
54192;DHT22;40101;53.002;6.488;2023-01-15T02:55:38;6.40;99.90
54192;DHT22;40101;53.002;6.488;2023-01-15T02:58:10;6.50;99.90
54192;DHT22;40101;53.002;6.488;2023-01-15T03:00:40;6.60;99.90
54192;DHT22;40101;53.002;6.488;2023-01-15T03:03:13;6.50;99.90
54192;DHT22;40101;53.002;6.488;2023-01-15T03:06:08;6.50;99.90
54192;DHT22;40101;53.002;6.488;2023-01-15T03:08:36;6.50;99.90
54192;DHT22;40101;53.002;6.488;2023-01-15T03:11:08;6.50;99.90
54192;DHT22;40101;53.002;6.488;2023-01-15T03:16:13;6.50;99.90
54192;DHT22;40101;53.002;6.488;2023-01-15T03:19:31;6.50;99.90
54192;DHT22;40101;53.002;6.488;2023-01-15T03:22:08;6.40;99.90
54192;DHT22;40101;53.002;6.488;2023-01-15T03:24:50;6.40;99.90
54192;DHT22;40101;53.002;6.488;2023-01-15T03:27:17;6.40;99.90
54192;DHT22;40101;53.002;6.488;2023-01-15T03:30:10;6.40;99.90
54192;DHT22;40101;53.002;6.488;2023-01-15T03:32:37;6.40;99.90
54192;DHT22;40101;53.002;6.488;2023-01-15T03:35:05;6.40;99.90
54192;DHT22;40101;53.002;6.488;2023-01-15T03:37:31;6.40;99.90
54192;DHT22;40101;53.002;6.488;2023-01-15T03:39:58;6.80;99.90
54192;DHT22;40101;53.002;6.488;2023-01-15T03:42:44;6.40;99.90
54192;DHT22;40101;53.002;6.488;2023-01-15T03:45:23;6.30;99.90
54192;DHT22;40101;53.002;6.488;2023-01-15T03:48:00;6.30;99.90
54192;DHT22;40101;53.002;6.488;2023-01-15T03:50:39;6.30;99.90
54192;DHT22;40101;53.002;6.488;2023-01-15T03:53:48;6.30;99.90
54192;DHT22;40101;53.002;6.488;2023-01-15T03:56:30;6.30;99.90
54192;DHT22;40101;53.002;6.488;2023-01-15T03:59:03;6.30;99.90
54192;DHT22;40101;53.002;6.488;2023-01-15T04:01:38;6.20;99.90
54192;DHT22;40101;53.002;6.488;2023-01-15T04:04:06;6.30;99.90
54192;DHT22;40101;53.002;6.488;2023-01-15T04:06:34;6.50;99.90
54192;DHT22;40101;53.002;6.488;2023-01-15T04:09:03;6.60;99.90
54192;DHT22;40101;53.002;6.488;2023-01-15T04:11:31;6.20;99.90
54192;DHT22;40101;53.002;6.488;2023-01-15T04:13:57;6.30;99.90
54192;DHT22;40101;53.002;6.488;2023-01-15T04:16:28;6.30;99.90
54192;DHT22;40101;53.002;6.488;2023-01-15T04:18:54;7.10;99.90
54192;DHT22;40101;53.002;6.488;2023-01-15T04:21:20;6.60;99.90
54192;DHT22;40101;53.002;6.488;2023-01-15T04:23:46;6.30;99.90
54192;DHT22;40101;53.002;6.488;2023-01-15T04:26:13;6.30;99.90
54192;DHT22;40101;53.002;6.488;2023-01-15T04:28:39;6.40;99.90
54192;DHT22;40101;53.002;6.488;2023-01-15T04:31:05;6.30;99.90
54192;DHT22;40101;53.002;6.488;2023-01-15T04:33:31;6.40;99.90
54192;DHT22;40101;53.002;6.488;2023-01-15T04:36:01;6.10;99.90
54192;DHT22;40101;53.002;6.488;2023-01-15T04:38:26;6.30;99.90
54192;DHT22;40101;53.002;6.488;2023-01-15T04:40:52;6.30;99.90
54192;DHT22;40101;53.002;6.488;2023-01-15T04:43:36;6.30;99.90
54192;DHT22;40101;53.002;6.488;2023-01-15T04:46:24;6.20;99.90
54192;DHT22;40101;53.002;6.488;2023-01-15T04:48:50;6.50;99.90
54192;DHT22;40101;53.002;6.488;2023-01-15T04:51:16;6.40;99.90
54192;DHT22;40101;53.002;6.488;2023-01-15T04:53:42;6.20;99.90
54192;DHT22;40101;53.002;6.488;2023-01-15T04:56:08;6.30;99.90
54192;DHT22;40101;53.002;6.488;2023-01-15T04:58:34;6.20;99.90
54192;DHT22;40101;53.002;6.488;2023-01-15T05:01:14;6.20;99.90
54192;DHT22;40101;53.002;6.488;2023-01-15T05:03:40;6.10;99.90
54192;DHT22;40101;53.002;6.488;2023-01-15T05:06:07;6.20;99.90
54192;DHT22;40101;53.002;6.488;2023-01-15T05:08:33;6.20;99.90
54192;DHT22;40101;53.002;6.488;2023-01-15T05:11:03;6.20;99.90
54192;DHT22;40101;53.002;6.488;2023-01-15T05:13:30;6.10;99.90
54192;DHT22;40101;53.002;6.488;2023-01-15T05:16:13;6.30;99.90
54192;DHT22;40101;53.002;6.488;2023-01-15T05:18:40;6.10;99.90
54192;DHT22;40101;53.002;6.488;2023-01-15T05:21:12;6.10;99.90
54192;DHT22;40101;53.002;6.488;2023-01-15T05:23:37;6.10;99.90
54192;DHT22;40101;53.002;6.488;2023-01-15T05:26:03;6.00;99.90
54192;DHT22;40101;53.002;6.488;2023-01-15T05:28:29;6.00;99.90
54192;DHT22;40101;53.002;6.488;2023-01-15T05:30:55;6.00;99.90
54192;DHT22;40101;53.002;6.488;2023-01-15T05:33:21;5.90;99.90
54192;DHT22;40101;53.002;6.488;2023-01-15T05:35:46;5.90;99.90
54192;DHT22;40101;53.002;6.488;2023-01-15T05:38:12;6.20;99.90
54192;DHT22;40101;53.002;6.488;2023-01-15T05:40:38;6.00;99.90
54192;DHT22;40101;53.002;6.488;2023-01-15T05:43:05;5.90;99.90
54192;DHT22;40101;53.002;6.488;2023-01-15T05:45:33;5.90;99.90
54192;DHT22;40101;53.002;6.488;2023-01-15T05:48:00;5.90;99.90
54192;DHT22;40101;53.002;6.488;2023-01-15T05:50:26;5.80;99.90
54192;DHT22;40101;53.002;6.488;2023-01-15T05:52:51;5.80;99.90
54192;DHT22;40101;53.002;6.488;2023-01-15T05:55:17;5.60;99.90
54192;DHT22;40101;53.002;6.488;2023-01-15T05:57:43;5.80;99.90
54192;DHT22;40101;53.002;6.488;2023-01-15T06:00:09;5.80;99.90
54192;DHT22;40101;53.002;6.488;2023-01-15T06:02:34;5.80;99.90
54192;DHT22;40101;53.002;6.488;2023-01-15T06:05:02;6.70;99.90
54192;DHT22;40101;53.002;6.488;2023-01-15T06:07:30;5.80;99.90
54192;DHT22;40101;53.002;6.488;2023-01-15T06:09:55;5.80;99.90
54192;DHT22;40101;53.002;6.488;2023-01-15T06:12:21;5.70;99.90
54192;DHT22;40101;53.002;6.488;2023-01-15T06:14:47;5.80;99.90
54192;DHT22;40101;53.002;6.488;2023-01-15T06:17:12;5.70;99.90
54192;DHT22;40101;53.002;6.488;2023-01-15T06:19:39;5.90;99.90
54192;DHT22;40101;53.002;6.488;2023-01-15T06:22:05;5.70;99.90
54192;DHT22;40101;53.002;6.488;2023-01-15T06:24:30;6.00;99.90
54192;DHT22;40101;53.002;6.488;2023-01-15T06:26:57;6.30;99.90
54192;DHT22;40101;53.002;6.488;2023-01-15T06:29:23;5.60;99.90
54192;DHT22;40101;53.002;6.488;2023-01-15T06:31:48;5.50;99.90
54192;DHT22;40101;53.002;6.488;2023-01-15T06:34:14;5.50;99.90
54192;DHT22;40101;53.002;6.488;2023-01-15T06:36:40;5.50;99.90
54192;DHT22;40101;53.002;6.488;2023-01-15T06:39:05;5.60;99.90
54192;DHT22;40101;53.002;6.488;2023-01-15T06:41:32;5.40;99.90
54192;DHT22;40101;53.002;6.488;2023-01-15T06:44:17;5.40;99.90
54192;DHT22;40101;53.002;6.488;2023-01-15T06:47:17;5.20;99.90
54192;DHT22;40101;53.002;6.488;2023-01-15T06:49:51;5.40;99.90
54192;DHT22;40101;53.002;6.488;2023-01-15T06:52:17;5.40;99.90
54192;DHT22;40101;53.002;6.488;2023-01-15T06:54:46;5.30;99.90
54192;DHT22;40101;53.002;6.488;2023-01-15T06:57:12;5.30;99.90
54192;DHT22;40101;53.002;6.488;2023-01-15T06:59:38;6.00;99.90
54192;DHT22;40101;53.002;6.488;2023-01-15T07:02:04;5.30;99.90
54192;DHT22;40101;53.002;6.488;2023-01-15T07:04:30;5.40;99.90
54192;DHT22;40101;53.002;6.488;2023-01-15T07:06:56;5.40;99.90
54192;DHT22;40101;53.002;6.488;2023-01-15T07:09:22;5.50;99.90
54192;DHT22;40101;53.002;6.488;2023-01-15T07:11:47;5.60;99.90
54192;DHT22;40101;53.002;6.488;2023-01-15T07:14:22;5.90;99.90
54192;DHT22;40101;53.002;6.488;2023-01-15T07:16:48;5.30;99.90
54192;DHT22;40101;53.002;6.488;2023-01-15T07:19:15;5.30;99.90
54192;DHT22;40101;53.002;6.488;2023-01-15T07:21:41;5.30;99.90
54192;DHT22;40101;53.002;6.488;2023-01-15T07:24:07;5.50;99.90
54192;DHT22;40101;53.002;6.488;2023-01-15T07:26:33;5.30;99.90
54192;DHT22;40101;53.002;6.488;2023-01-15T07:28:59;5.30;99.90
54192;DHT22;40101;53.002;6.488;2023-01-15T07:31:24;5.80;99.90
54192;DHT22;40101;53.002;6.488;2023-01-15T07:34:00;5.30;99.90
54192;DHT22;40101;53.002;6.488;2023-01-15T07:36:30;5.60;99.90
54192;DHT22;40101;53.002;6.488;2023-01-15T07:45:20;5.30;99.90
54192;DHT22;40101;53.002;6.488;2023-01-15T07:48:14;5.30;99.90
54192;DHT22;40101;53.002;6.488;2023-01-15T07:51:08;5.50;99.90
54192;DHT22;40101;53.002;6.488;2023-01-15T07:53:34;5.30;99.90
54192;DHT22;40101;53.002;6.488;2023-01-15T07:56:03;5.30;99.90
54192;DHT22;40101;53.002;6.488;2023-01-15T07:58:32;5.30;99.90
54192;DHT22;40101;53.002;6.488;2023-01-15T08:01:15;5.40;99.90
54192;DHT22;40101;53.002;6.488;2023-01-15T08:03:47;5.40;99.90
54192;DHT22;40101;53.002;6.488;2023-01-15T08:06:23;5.50;99.90
54192;DHT22;40101;53.002;6.488;2023-01-15T08:13:34;5.10;99.90
54192;DHT22;40101;53.002;6.488;2023-01-15T08:16:46;5.50;99.90
54192;DHT22;40101;53.002;6.488;2023-01-15T08:28:20;7.00;99.90
54192;DHT22;40101;53.002;6.488;2023-01-15T08:30:57;7.80;99.90
54192;DHT22;40101;53.002;6.488;2023-01-15T08:33:39;8.00;99.90
54192;DHT22;40101;53.002;6.488;2023-01-15T08:43:10;7.70;99.90
54192;DHT22;40101;53.002;6.488;2023-01-15T08:45:42;7.40;99.90
54192;DHT22;40101;53.002;6.488;2023-01-15T08:48:08;7.10;99.90
54192;DHT22;40101;53.002;6.488;2023-01-15T08:51:26;6.80;99.90
54192;DHT22;40101;53.002;6.488;2023-01-15T08:57:40;6.30;99.90
54192;DHT22;40101;53.002;6.488;2023-01-15T09:20:15;5.60;99.90
54192;DHT22;40101;53.002;6.488;2023-01-15T09:27:38;5.10;99.90
54192;DHT22;40101;53.002;6.488;2023-01-15T09:33:35;5.30;99.90
54192;DHT22;40101;53.002;6.488;2023-01-15T10:06:20;7.60;99.90
54192;DHT22;40101;53.002;6.488;2023-01-15T10:11:57;6.50;99.90
54192;DHT22;40101;53.002;6.488;2023-01-15T10:14:46;6.10;99.90
54192;DHT22;40101;53.002;6.488;2023-01-15T10:17:20;6.90;99.90
54192;DHT22;40101;53.002;6.488;2023-01-15T10:19:50;6.00;99.90
54192;DHT22;40101;53.002;6.488;2023-01-15T10:25:47;7.30;99.90
54192;DHT22;40101;53.002;6.488;2023-01-15T10:28:30;7.80;99.90
54192;DHT22;40101;53.002;6.488;2023-01-15T10:31:03;8.40;99.90
54192;DHT22;40101;53.002;6.488;2023-01-15T10:33:58;8.50;99.90
54192;DHT22;40101;53.002;6.488;2023-01-15T10:48:43;6.20;99.90
54192;DHT22;40101;53.002;6.488;2023-01-15T10:51:30;6.00;99.90
54192;DHT22;40101;53.002;6.488;2023-01-15T10:57:07;5.70;99.90
54192;DHT22;40101;53.002;6.488;2023-01-15T10:59:38;5.70;99.90
54192;DHT22;40101;53.002;6.488;2023-01-15T11:05:01;5.60;99.90
54192;DHT22;40101;53.002;6.488;2023-01-15T11:07:37;5.60;99.90
54192;DHT22;40101;53.002;6.488;2023-01-15T11:10:11;5.60;99.90
54192;DHT22;40101;53.002;6.488;2023-01-15T11:13:19;5.60;99.90
54192;DHT22;40101;53.002;6.488;2023-01-15T11:16:14;5.60;99.90
54192;DHT22;40101;53.002;6.488;2023-01-15T11:19:01;5.90;99.90
54192;DHT22;40101;53.002;6.488;2023-01-15T11:21:49;5.90;99.90
54192;DHT22;40101;53.002;6.488;2023-01-15T11:24:17;6.10;99.90
54192;DHT22;40101;53.002;6.488;2023-01-15T11:26:49;6.10;99.90
54192;DHT22;40101;53.002;6.488;2023-01-15T11:29:27;6.40;99.90
54192;DHT22;40101;53.002;6.488;2023-01-15T11:31:54;6.50;99.90
54192;DHT22;40101;53.002;6.488;2023-01-15T11:34:21;6.60;99.90
54192;DHT22;40101;53.002;6.488;2023-01-15T11:40:19;6.70;99.90
54192;DHT22;40101;53.002;6.488;2023-01-15T11:42:49;6.80;99.90
54192;DHT22;40101;53.002;6.488;2023-01-15T11:45:51;7.10;99.90
54192;DHT22;40101;53.002;6.488;2023-01-15T11:48:46;7.40;99.90
54192;DHT22;40101;53.002;6.488;2023-01-15T11:51:39;7.20;99.90
54192;DHT22;40101;53.002;6.488;2023-01-15T11:54:09;7.40;99.90
54192;DHT22;40101;53.002;6.488;2023-01-15T11:56:41;7.50;99.90
54192;DHT22;40101;53.002;6.488;2023-01-15T11:59:18;7.50;99.90
54192;DHT22;40101;53.002;6.488;2023-01-15T12:01:54;8.00;99.90
54192;DHT22;40101;53.002;6.488;2023-01-15T12:04:33;7.80;99.90
54192;DHT22;40101;53.002;6.488;2023-01-15T12:07:01;7.90;99.90
54192;DHT22;40101;53.002;6.488;2023-01-15T12:34:54;8.00;99.90
54192;DHT22;40101;53.002;6.488;2023-01-15T12:41:32;7.70;99.90
54192;DHT22;40101;53.002;6.488;2023-01-15T12:44:37;7.70;99.90
54192;DHT22;40101;53.002;6.488;2023-01-15T13:00:02;7.70;99.90
54192;DHT22;40101;53.002;6.488;2023-01-15T13:02:53;7.60;99.90
54192;DHT22;40101;53.002;6.488;2023-01-15T13:05:35;7.70;99.90
54192;DHT22;40101;53.002;6.488;2023-01-15T13:08:35;7.90;99.90
54192;DHT22;40101;53.002;6.488;2023-01-15T13:11:14;7.90;99.90
54192;DHT22;40101;53.002;6.488;2023-01-15T13:16:55;7.80;99.90
54192;DHT22;40101;53.002;6.488;2023-01-15T13:19:45;7.70;99.90
54192;DHT22;40101;53.002;6.488;2023-01-15T13:22:16;7.50;99.90
54192;DHT22;40101;53.002;6.488;2023-01-15T13:28:04;6.50;99.90
54192;DHT22;40101;53.002;6.488;2023-01-15T13:30:40;6.50;99.90
54192;DHT22;40101;53.002;6.488;2023-01-15T13:33:55;6.20;99.90
54192;DHT22;40101;53.002;6.488;2023-01-15T13:37:04;6.80;99.90
54192;DHT22;40101;53.002;6.488;2023-01-15T13:39:40;5.90;99.90
54192;DHT22;40101;53.002;6.488;2023-01-15T13:45:42;5.80;99.90
54192;DHT22;40101;53.002;6.488;2023-01-15T13:48:26;5.80;99.90
54192;DHT22;40101;53.002;6.488;2023-01-15T13:51:05;5.90;99.90
54192;DHT22;40101;53.002;6.488;2023-01-15T13:54:17;5.70;99.90
54192;DHT22;40101;53.002;6.488;2023-01-15T14:26:38;5.90;99.90
54192;DHT22;40101;53.002;6.488;2023-01-15T14:34:32;6.00;99.90
54192;DHT22;40101;53.002;6.488;2023-01-15T14:37:00;6.10;99.90
54192;DHT22;40101;53.002;6.488;2023-01-15T14:44:55;6.20;99.90
54192;DHT22;40101;53.002;6.488;2023-01-15T14:50:40;6.20;99.90
54192;DHT22;40101;53.002;6.488;2023-01-15T14:53:26;6.10;99.90
54192;DHT22;40101;53.002;6.488;2023-01-15T14:59:51;6.10;99.90
54192;DHT22;40101;53.002;6.488;2023-01-15T15:05:44;5.90;99.90
54192;DHT22;40101;53.002;6.488;2023-01-15T15:08:24;6.10;99.90
54192;DHT22;40101;53.002;6.488;2023-01-15T15:10:55;6.00;99.90
54192;DHT22;40101;53.002;6.488;2023-01-15T15:17:16;6.10;99.90
54192;DHT22;40101;53.002;6.488;2023-01-15T15:19:49;6.10;99.90
54192;DHT22;40101;53.002;6.488;2023-01-15T15:22:21;6.30;99.90
54192;DHT22;40101;53.002;6.488;2023-01-15T15:24:53;6.10;99.90
54192;DHT22;40101;53.002;6.488;2023-01-15T15:27:21;6.30;99.90
54192;DHT22;40101;53.002;6.488;2023-01-15T15:29:48;5.80;99.90
54192;DHT22;40101;53.002;6.488;2023-01-15T15:35:27;6.20;99.90
54192;DHT22;40101;53.002;6.488;2023-01-15T15:38:25;6.20;99.90
54192;DHT22;40101;53.002;6.488;2023-01-15T15:41:05;5.90;99.90
54192;DHT22;40101;53.002;6.488;2023-01-15T15:43:51;6.30;99.90
54192;DHT22;40101;53.002;6.488;2023-01-15T15:46:48;6.00;99.90
54192;DHT22;40101;53.002;6.488;2023-01-15T15:49:39;6.00;99.90
54192;DHT22;40101;53.002;6.488;2023-01-15T15:52:23;6.00;99.90
54192;DHT22;40101;53.002;6.488;2023-01-15T15:55:00;6.80;99.90
54192;DHT22;40101;53.002;6.488;2023-01-15T15:57:47;6.00;99.90
54192;DHT22;40101;53.002;6.488;2023-01-15T16:00:22;6.10;99.90
54192;DHT22;40101;53.002;6.488;2023-01-15T16:02:50;5.90;99.90
54192;DHT22;40101;53.002;6.488;2023-01-15T16:05:28;6.00;99.90
54192;DHT22;40101;53.002;6.488;2023-01-15T16:11:11;6.00;99.90
54192;DHT22;40101;53.002;6.488;2023-01-15T16:24:00;6.10;99.90
54192;DHT22;40101;53.002;6.488;2023-01-15T16:29:14;6.60;99.90
54192;DHT22;40101;53.002;6.488;2023-01-15T16:31:42;6.10;99.90
54192;DHT22;40101;53.002;6.488;2023-01-15T16:34:19;6.10;99.90
54192;DHT22;40101;53.002;6.488;2023-01-15T16:36:45;6.10;99.90
54192;DHT22;40101;53.002;6.488;2023-01-15T16:39:22;6.00;99.90
54192;DHT22;40101;53.002;6.488;2023-01-15T16:41:50;6.00;99.90
54192;DHT22;40101;53.002;6.488;2023-01-15T16:51:21;6.00;99.90
54192;DHT22;40101;53.002;6.488;2023-01-15T16:56:00;6.00;99.90
54192;DHT22;40101;53.002;6.488;2023-01-15T16:58:41;6.10;99.90
54192;DHT22;40101;53.002;6.488;2023-01-15T17:01:46;6.20;99.90
54192;DHT22;40101;53.002;6.488;2023-01-15T17:36:22;5.80;99.90
54192;DHT22;40101;53.002;6.488;2023-01-15T17:38:48;5.90;99.90
54192;DHT22;40101;53.002;6.488;2023-01-15T17:41:18;5.90;99.90
54192;DHT22;40101;53.002;6.488;2023-01-15T17:43:44;5.90;99.90
54192;DHT22;40101;53.002;6.488;2023-01-15T17:46:10;5.90;99.90
54192;DHT22;40101;53.002;6.488;2023-01-15T17:48:36;5.80;99.90
54192;DHT22;40101;53.002;6.488;2023-01-15T17:51:04;6.10;99.90
54192;DHT22;40101;53.002;6.488;2023-01-15T17:53:30;5.70;99.90
54192;DHT22;40101;53.002;6.488;2023-01-15T17:55:57;6.10;99.90
54192;DHT22;40101;53.002;6.488;2023-01-15T17:58:42;5.60;99.90
54192;DHT22;40101;53.002;6.488;2023-01-15T18:01:27;5.50;99.90
54192;DHT22;40101;53.002;6.488;2023-01-15T18:04:46;5.50;99.90
54192;DHT22;40101;53.002;6.488;2023-01-15T18:07:34;5.40;99.90
54192;DHT22;40101;53.002;6.488;2023-01-15T18:10:02;5.40;99.90
54192;DHT22;40101;53.002;6.488;2023-01-15T18:12:28;5.30;99.90
54192;DHT22;40101;53.002;6.488;2023-01-15T18:15:27;6.00;99.90
54192;DHT22;40101;53.002;6.488;2023-01-15T18:17:56;5.60;99.90
54192;DHT22;40101;53.002;6.488;2023-01-15T18:21:20;5.70;99.90
54192;DHT22;40101;53.002;6.488;2023-01-15T18:24:42;5.50;99.90
54192;DHT22;40101;53.002;6.488;2023-01-15T18:27:17;5.50;99.90
54192;DHT22;40101;53.002;6.488;2023-01-15T18:29:43;5.40;99.90
54192;DHT22;40101;53.002;6.488;2023-01-15T18:32:11;5.70;99.90
54192;DHT22;40101;53.002;6.488;2023-01-15T18:34:37;5.70;99.90
54192;DHT22;40101;53.002;6.488;2023-01-15T18:37:06;5.60;99.90
54192;DHT22;40101;53.002;6.488;2023-01-15T18:39:32;5.40;99.90
54192;DHT22;40101;53.002;6.488;2023-01-15T18:42:00;5.50;99.90
54192;DHT22;40101;53.002;6.488;2023-01-15T18:44:25;5.50;99.90
54192;DHT22;40101;53.002;6.488;2023-01-15T18:47:14;5.50;99.90
54192;DHT22;40101;53.002;6.488;2023-01-15T18:49:44;5.50;99.90
54192;DHT22;40101;53.002;6.488;2023-01-15T18:52:21;6.00;99.90
54192;DHT22;40101;53.002;6.488;2023-01-15T18:55:05;6.60;99.90
54192;DHT22;40101;53.002;6.488;2023-01-15T18:57:46;5.60;99.90
54192;DHT22;40101;53.002;6.488;2023-01-15T19:16:49;5.70;99.90
54192;DHT22;40101;53.002;6.488;2023-01-15T19:19:36;5.60;99.90
54192;DHT22;40101;53.002;6.488;2023-01-15T19:22:02;5.60;99.90
54192;DHT22;40101;53.002;6.488;2023-01-15T19:24:47;5.90;99.90
54192;DHT22;40101;53.002;6.488;2023-01-15T19:27:13;5.60;99.90
54192;DHT22;40101;53.002;6.488;2023-01-15T19:29:40;5.60;99.90
54192;DHT22;40101;53.002;6.488;2023-01-15T19:32:06;5.60;99.90
54192;DHT22;40101;53.002;6.488;2023-01-15T19:34:32;5.60;99.90
54192;DHT22;40101;53.002;6.488;2023-01-15T19:37:22;5.60;99.90
54192;DHT22;40101;53.002;6.488;2023-01-15T19:40:22;5.50;99.90
54192;DHT22;40101;53.002;6.488;2023-01-15T19:46:20;5.50;99.90
54192;DHT22;40101;53.002;6.488;2023-01-15T19:49:16;5.90;99.90
54192;DHT22;40101;53.002;6.488;2023-01-15T19:52:01;5.50;99.90
54192;DHT22;40101;53.002;6.488;2023-01-15T19:54:45;5.50;99.90
54192;DHT22;40101;53.002;6.488;2023-01-15T19:57:20;5.40;99.90
54192;DHT22;40101;53.002;6.488;2023-01-15T19:59:57;5.50;99.90
54192;DHT22;40101;53.002;6.488;2023-01-15T20:02:52;5.40;99.90
54192;DHT22;40101;53.002;6.488;2023-01-15T20:07:59;5.40;99.90
54192;DHT22;40101;53.002;6.488;2023-01-15T20:10:57;5.00;99.90
54192;DHT22;40101;53.002;6.488;2023-01-15T20:14:12;5.30;99.90
54192;DHT22;40101;53.002;6.488;2023-01-15T20:17:01;5.60;99.90
54192;DHT22;40101;53.002;6.488;2023-01-15T20:23:37;5.10;99.90
54192;DHT22;40101;53.002;6.488;2023-01-15T20:26:19;5.20;99.90
54192;DHT22;40101;53.002;6.488;2023-01-15T20:39:12;5.20;99.90
54192;DHT22;40101;53.002;6.488;2023-01-15T20:42:17;5.20;99.90
54192;DHT22;40101;53.002;6.488;2023-01-15T20:45:32;5.20;99.90
54192;DHT22;40101;53.002;6.488;2023-01-15T20:51:37;5.20;99.90
54192;DHT22;40101;53.002;6.488;2023-01-15T20:54:03;5.20;99.90
54192;DHT22;40101;53.002;6.488;2023-01-15T20:59:44;5.10;99.90
54192;DHT22;40101;53.002;6.488;2023-01-15T21:02:22;5.10;99.90
54192;DHT22;40101;53.002;6.488;2023-01-15T21:04:55;5.10;99.90
54192;DHT22;40101;53.002;6.488;2023-01-15T21:07:22;5.90;99.90
54192;DHT22;40101;53.002;6.488;2023-01-15T21:09:52;5.80;99.90
54192;DHT22;40101;53.002;6.488;2023-01-15T21:12:21;5.10;99.90
54192;DHT22;40101;53.002;6.488;2023-01-15T21:15:00;5.50;99.90
54192;DHT22;40101;53.002;6.488;2023-01-15T21:21:29;5.10;99.90
54192;DHT22;40101;53.002;6.488;2023-01-15T21:24:28;5.20;99.90
54192;DHT22;40101;53.002;6.488;2023-01-15T21:27:03;5.10;99.90
54192;DHT22;40101;53.002;6.488;2023-01-15T21:29:39;5.10;99.90
54192;DHT22;40101;53.002;6.488;2023-01-15T21:41:49;5.10;99.90
54192;DHT22;40101;53.002;6.488;2023-01-15T21:45:04;5.00;99.90
54192;DHT22;40101;53.002;6.488;2023-01-15T21:51:41;5.00;99.90
54192;DHT22;40101;53.002;6.488;2023-01-15T21:54:37;5.60;99.90
54192;DHT22;40101;53.002;6.488;2023-01-15T22:01:22;4.90;99.90
54192;DHT22;40101;53.002;6.488;2023-01-15T22:07:40;4.90;99.90
54192;DHT22;40101;53.002;6.488;2023-01-15T22:10:06;5.20;99.90
54192;DHT22;40101;53.002;6.488;2023-01-15T22:12:33;4.90;99.90
54192;DHT22;40101;53.002;6.488;2023-01-15T22:15:20;4.90;99.90
54192;DHT22;40101;53.002;6.488;2023-01-15T22:28:06;4.90;99.90
54192;DHT22;40101;53.002;6.488;2023-01-15T22:31:09;4.90;99.90
54192;DHT22;40101;53.002;6.488;2023-01-15T22:37:36;5.00;99.90
54192;DHT22;40101;53.002;6.488;2023-01-15T22:40:11;4.90;99.90
54192;DHT22;40101;53.002;6.488;2023-01-15T22:42:37;4.80;99.90
54192;DHT22;40101;53.002;6.488;2023-01-15T22:48:47;4.80;99.90
54192;DHT22;40101;53.002;6.488;2023-01-15T23:03:38;4.50;99.90
54192;DHT22;40101;53.002;6.488;2023-01-15T23:06:09;5.20;99.90
54192;DHT22;40101;53.002;6.488;2023-01-15T23:08:45;4.60;99.90
54192;DHT22;40101;53.002;6.488;2023-01-15T23:11:14;4.70;99.90
54192;DHT22;40101;53.002;6.488;2023-01-15T23:13:41;4.70;99.90
54192;DHT22;40101;53.002;6.488;2023-01-15T23:16:08;4.70;99.90
54192;DHT22;40101;53.002;6.488;2023-01-15T23:18:34;4.60;99.90
54192;DHT22;40101;53.002;6.488;2023-01-15T23:21:09;4.90;99.90
54192;DHT22;40101;53.002;6.488;2023-01-15T23:23:36;4.60;99.90